sensor_id;sensor_type;location;lat;lon;timestamp;P1;P2;P0
67892;PMS7003;54688;52.376;16.744;2022-09-17T00:00:33;5;4;
67892;PMS7003;54688;52.376;16.744;2022-09-17T00:04:00;4;4;
67892;PMS7003;54688;52.376;16.744;2022-09-17T00:07:02;1;1;
67892;PMS7003;54688;52.376;16.744;2022-09-17T00:10:05;3;3;
67892;PMS7003;54688;52.376;16.744;2022-09-17T00:13:09;2;2;
67892;PMS7003;54688;52.376;16.744;2022-09-17T00:16:11;2;2;
67892;PMS7003;54688;52.376;16.744;2022-09-17T00:19:16;2;2;
67892;PMS7003;54688;52.376;16.744;2022-09-17T00:22:18;5;5;
67892;PMS7003;54688;52.376;16.744;2022-09-17T00:25:21;3;3;
67892;PMS7003;54688;52.376;16.744;2022-09-17T00:28:22;6;3;
67892;PMS7003;54688;52.376;16.744;2022-09-17T00:31:26;3;3;
67892;PMS7003;54688;52.376;16.744;2022-09-17T00:34:28;2;2;
67892;PMS7003;54688;52.376;16.744;2022-09-17T00:37:30;9;4;
67892;PMS7003;54688;52.376;16.744;2022-09-17T00:40:33;5;3;
67892;PMS7003;54688;52.376;16.744;2022-09-17T00:43:40;3;3;
67892;PMS7003;54688;52.376;16.744;2022-09-17T00:46:43;2;2;
67892;PMS7003;54688;52.376;16.744;2022-09-17T00:49:46;5;3;
67892;PMS7003;54688;52.376;16.744;2022-09-17T00:52:51;3;3;
67892;PMS7003;54688;52.376;16.744;2022-09-17T00:55:56;3;2;
67892;PMS7003;54688;52.376;16.744;2022-09-17T00:59:00;4;3;
67892;PMS7003;54688;52.376;16.744;2022-09-17T01:02:03;3;2;
67892;PMS7003;54688;52.376;16.744;2022-09-17T01:05:07;3;2;
67892;PMS7003;54688;52.376;16.744;2022-09-17T01:08:20;1;1;
67892;PMS7003;54688;52.376;16.744;2022-09-17T01:11:37;3;1;
67892;PMS7003;54688;52.376;16.744;2022-09-17T01:14:55;4;3;
67892;PMS7003;54688;52.376;16.744;2022-09-17T01:18:12;5;2;
67892;PMS7003;54688;52.376;16.744;2022-09-17T01:21:31;1;1;
67892;PMS7003;54688;52.376;16.744;2022-09-17T01:24:45;3;3;
67892;PMS7003;54688;52.376;16.744;2022-09-17T01:28:31;3;2;
67892;PMS7003;54688;52.376;16.744;2022-09-17T01:31:36;5;2;
67892;PMS7003;54688;52.376;16.744;2022-09-17T01:34:52;3;3;
67892;PMS7003;54688;52.376;16.744;2022-09-17T01:38:00;2;2;
67892;PMS7003;54688;52.376;16.744;2022-09-17T01:41:07;8;3;
67892;PMS7003;54688;52.376;16.744;2022-09-17T01:44:15;3;3;
67892;PMS7003;54688;52.376;16.744;2022-09-17T01:47:22;3;3;
67892;PMS7003;54688;52.376;16.744;2022-09-17T01:50:27;4;4;
67892;PMS7003;54688;52.376;16.744;2022-09-17T01:53:37;6;5;
67892;PMS7003;54688;52.376;16.744;2022-09-17T01:56:46;5;4;
67892;PMS7003;54688;52.376;16.744;2022-09-17T01:59:51;4;4;
67892;PMS7003;54688;52.376;16.744;2022-09-17T02:02:59;5;3;
67892;PMS7003;54688;52.376;16.744;2022-09-17T02:06:06;3;3;
67892;PMS7003;54688;52.376;16.744;2022-09-17T02:09:14;5;4;
67892;PMS7003;54688;52.376;16.744;2022-09-17T02:12:21;5;5;
67892;PMS7003;54688;52.376;16.744;2022-09-17T02:15:29;4;4;
67892;PMS7003;54688;52.376;16.744;2022-09-17T02:18:36;4;4;
67892;PMS7003;54688;52.376;16.744;2022-09-17T02:21:45;5;4;
67892;PMS7003;54688;52.376;16.744;2022-09-17T02:24:53;3;3;
67892;PMS7003;54688;52.376;16.744;2022-09-17T02:28:01;4;4;
67892;PMS7003;54688;52.376;16.744;2022-09-17T02:31:04;3;3;
67892;PMS7003;54688;52.376;16.744;2022-09-17T02:34:06;6;5;
67892;PMS7003;54688;52.376;16.744;2022-09-17T02:37:08;5;5;
67892;PMS7003;54688;52.376;16.744;2022-09-17T02:40:12;3;3;
67892;PMS7003;54688;52.376;16.744;2022-09-17T02:43:24;3;3;
67892;PMS7003;54688;52.376;16.744;2022-09-17T02:46:47;3;3;
67892;PMS7003;54688;52.376;16.744;2022-09-17T02:50:06;6;6;
67892;PMS7003;54688;52.376;16.744;2022-09-17T02:53:20;7;6;
67892;PMS7003;54688;52.376;16.744;2022-09-17T02:56:39;8;7;
67892;PMS7003;54688;52.376;16.744;2022-09-17T02:59:51;7;6;
67892;PMS7003;54688;52.376;16.744;2022-09-17T03:02:57;6;6;
67892;PMS7003;54688;52.376;16.744;2022-09-17T03:06:01;3;3;
67892;PMS7003;54688;52.376;16.744;2022-09-17T03:09:03;5;4;
67892;PMS7003;54688;52.376;16.744;2022-09-17T03:12:05;3;3;
67892;PMS7003;54688;52.376;16.744;2022-09-17T03:15:08;6;4;
67892;PMS7003;54688;52.376;16.744;2022-09-17T03:18:11;4;3;
67892;PMS7003;54688;52.376;16.744;2022-09-17T03:21:14;7;4;
67892;PMS7003;54688;52.376;16.744;2022-09-17T03:24:15;4;3;
67892;PMS7003;54688;52.376;16.744;2022-09-17T03:27:17;7;5;
67892;PMS7003;54688;52.376;16.744;2022-09-17T03:30:19;4;4;
67892;PMS7003;54688;52.376;16.744;2022-09-17T03:33:21;5;4;
67892;PMS7003;54688;52.376;16.744;2022-09-17T03:36:23;6;4;
67892;PMS7003;54688;52.376;16.744;2022-09-17T03:39:25;5;5;
67892;PMS7003;54688;52.376;16.744;2022-09-17T03:42:26;3;3;
67892;PMS7003;54688;52.376;16.744;2022-09-17T03:45:28;5;5;
67892;PMS7003;54688;52.376;16.744;2022-09-17T03:48:31;4;4;
67892;PMS7003;54688;52.376;16.744;2022-09-17T03:51:32;4;4;
67892;PMS7003;54688;52.376;16.744;2022-09-17T03:54:34;4;3;
67892;PMS7003;54688;52.376;16.744;2022-09-17T03:57:36;4;4;
67892;PMS7003;54688;52.376;16.744;2022-09-17T04:00:38;4;4;
67892;PMS7003;54688;52.376;16.744;2022-09-17T04:03:40;3;3;
67892;PMS7003;54688;52.376;16.744;2022-09-17T04:06:41;5;5;
67892;PMS7003;54688;52.376;16.744;2022-09-17T04:09:43;5;5;
67892;PMS7003;54688;52.376;16.744;2022-09-17T04:12:45;4;4;
67892;PMS7003;54688;52.376;16.744;2022-09-17T04:15:47;4;4;
67892;PMS7003;54688;52.376;16.744;2022-09-17T04:18:51;4;3;
67892;PMS7003;54688;52.376;16.744;2022-09-17T04:21:53;3;3;
67892;PMS7003;54688;52.376;16.744;2022-09-17T04:24:55;3;3;
67892;PMS7003;54688;52.376;16.744;2022-09-17T04:27:57;1;1;
67892;PMS7003;54688;52.376;16.744;2022-09-17T04:30:59;2;2;
67892;PMS7003;54688;52.376;16.744;2022-09-17T04:34:02;3;2;
67892;PMS7003;54688;52.376;16.744;2022-09-17T04:37:05;4;3;
67892;PMS7003;54688;52.376;16.744;2022-09-17T04:40:07;2;2;
67892;PMS7003;54688;52.376;16.744;2022-09-17T04:43:10;3;3;
67892;PMS7003;54688;52.376;16.744;2022-09-17T04:46:12;4;3;
67892;PMS7003;54688;52.376;16.744;2022-09-17T04:49:14;3;3;
67892;PMS7003;54688;52.376;16.744;2022-09-17T04:52:16;4;4;
67892;PMS7003;54688;52.376;16.744;2022-09-17T04:55:18;2;2;
67892;PMS7003;54688;52.376;16.744;2022-09-17T04:58:20;4;3;
67892;PMS7003;54688;52.376;16.744;2022-09-17T05:01:22;5;4;
67892;PMS7003;54688;52.376;16.744;2022-09-17T05:04:24;4;3;
67892;PMS7003;54688;52.376;16.744;2022-09-17T05:07:25;3;3;
67892;PMS7003;54688;52.376;16.744;2022-09-17T05:10:27;2;2;
67892;PMS7003;54688;52.376;16.744;2022-09-17T05:13:29;2;1;
67892;PMS7003;54688;52.376;16.744;2022-09-17T05:16:31;4;2;
67892;PMS7003;54688;52.376;16.744;2022-09-17T05:19:35;0;0;
67892;PMS7003;54688;52.376;16.744;2022-09-17T05:22:41;2;1;
67892;PMS7003;54688;52.376;16.744;2022-09-17T05:25:43;2;2;
67892;PMS7003;54688;52.376;16.744;2022-09-17T05:28:45;2;2;
67892;PMS7003;54688;52.376;16.744;2022-09-17T05:31:47;1;1;
67892;PMS7003;54688;52.376;16.744;2022-09-17T05:34:49;1;1;
67892;PMS7003;54688;52.376;16.744;2022-09-17T05:37:55;0;0;
67892;PMS7003;54688;52.376;16.744;2022-09-17T05:40:58;2;2;
67892;PMS7003;54688;52.376;16.744;2022-09-17T05:44:00;2;2;
67892;PMS7003;54688;52.376;16.744;2022-09-17T05:47:01;1;1;
67892;PMS7003;54688;52.376;16.744;2022-09-17T05:50:04;4;3;
67892;PMS7003;54688;52.376;16.744;2022-09-17T05:53:09;2;1;
67892;PMS7003;54688;52.376;16.744;2022-09-17T05:56:11;1;0;
67892;PMS7003;54688;52.376;16.744;2022-09-17T05:59:13;3;3;
67892;PMS7003;54688;52.376;16.744;2022-09-17T06:02:15;4;3;
67892;PMS7003;54688;52.376;16.744;2022-09-17T06:05:18;2;2;
67892;PMS7003;54688;52.376;16.744;2022-09-17T06:08:20;2;2;
67892;PMS7003;54688;52.376;16.744;2022-09-17T06:11:22;1;1;
67892;PMS7003;54688;52.376;16.744;2022-09-17T06:14:24;2;2;
67892;PMS7003;54688;52.376;16.744;2022-09-17T06:17:26;2;2;
67892;PMS7003;54688;52.376;16.744;2022-09-17T06:20:29;3;3;
67892;PMS7003;54688;52.376;16.744;2022-09-17T06:23:32;3;3;
67892;PMS7003;54688;52.376;16.744;2022-09-17T06:26:34;4;4;
67892;PMS7003;54688;52.376;16.744;2022-09-17T06:29:36;5;3;
67892;PMS7003;54688;52.376;16.744;2022-09-17T06:32:38;6;4;
67892;PMS7003;54688;52.376;16.744;2022-09-17T06:35:40;5;5;
67892;PMS7003;54688;52.376;16.744;2022-09-17T06:38:42;8;5;
67892;PMS7003;54688;52.376;16.744;2022-09-17T06:41:44;9;5;
67892;PMS7003;54688;52.376;16.744;2022-09-17T06:44:46;8;7;
67892;PMS7003;54688;52.376;16.744;2022-09-17T06:47:48;12;11;
67892;PMS7003;54688;52.376;16.744;2022-09-17T06:50:52;18;10;
67892;PMS7003;54688;52.376;16.744;2022-09-17T06:53:54;12;9;
67892;PMS7003;54688;52.376;16.744;2022-09-17T06:56:56;12;11;
67892;PMS7003;54688;52.376;16.744;2022-09-17T06:59:57;9;8;
67892;PMS7003;54688;52.376;16.744;2022-09-17T07:02:59;10;8;
67892;PMS7003;54688;52.376;16.744;2022-09-17T07:06:04;7;6;
67892;PMS7003;54688;52.376;16.744;2022-09-17T07:09:08;8;8;
67892;PMS7003;54688;52.376;16.744;2022-09-17T07:12:10;9;7;
67892;PMS7003;54688;52.376;16.744;2022-09-17T07:15:12;9;7;
67892;PMS7003;54688;52.376;16.744;2022-09-17T07:18:14;8;6;
67892;PMS7003;54688;52.376;16.744;2022-09-17T07:21:17;6;6;
67892;PMS7003;54688;52.376;16.744;2022-09-17T07:24:19;9;6;
67892;PMS7003;54688;52.376;16.744;2022-09-17T07:27:21;8;6;
67892;PMS7003;54688;52.376;16.744;2022-09-17T07:30:23;10;7;
67892;PMS7003;54688;52.376;16.744;2022-09-17T07:33:26;8;6;
67892;PMS7003;54688;52.376;16.744;2022-09-17T07:36:28;13;11;
67892;PMS7003;54688;52.376;16.744;2022-09-17T07:39:30;12;10;
67892;PMS7003;54688;52.376;16.744;2022-09-17T07:42:33;17;16;
67892;PMS7003;54688;52.376;16.744;2022-09-17T07:45:35;13;10;
67892;PMS7003;54688;52.376;16.744;2022-09-17T07:48:38;12;10;
67892;PMS7003;54688;52.376;16.744;2022-09-17T07:51:40;13;12;
67892;PMS7003;54688;52.376;16.744;2022-09-17T07:54:42;10;9;
67892;PMS7003;54688;52.376;16.744;2022-09-17T07:57:49;10;9;
67892;PMS7003;54688;52.376;16.744;2022-09-17T08:00:51;9;6;
67892;PMS7003;54688;52.376;16.744;2022-09-17T08:03:54;7;7;
67892;PMS7003;54688;52.376;16.744;2022-09-17T08:06:55;6;6;
67892;PMS7003;54688;52.376;16.744;2022-09-17T08:09:57;5;5;
67892;PMS7003;54688;52.376;16.744;2022-09-17T08:12:59;4;3;
67892;PMS7003;54688;52.376;16.744;2022-09-17T08:16:03;5;5;
67892;PMS7003;54688;52.376;16.744;2022-09-17T08:19:05;6;4;
67892;PMS7003;54688;52.376;16.744;2022-09-17T08:22:09;5;4;
67892;PMS7003;54688;52.376;16.744;2022-09-17T08:25:11;6;5;
67892;PMS7003;54688;52.376;16.744;2022-09-17T08:28:14;6;5;
67892;PMS7003;54688;52.376;16.744;2022-09-17T08:31:18;4;4;
67892;PMS7003;54688;52.376;16.744;2022-09-17T08:34:20;7;4;
67892;PMS7003;54688;52.376;16.744;2022-09-17T08:37:22;5;3;
67892;PMS7003;54688;52.376;16.744;2022-09-17T08:40:23;4;4;
67892;PMS7003;54688;52.376;16.744;2022-09-17T08:43:27;3;3;
67892;PMS7003;54688;52.376;16.744;2022-09-17T08:46:33;5;4;
67892;PMS7003;54688;52.376;16.744;2022-09-17T08:49:40;2;1;
67892;PMS7003;54688;52.376;16.744;2022-09-17T08:53:06;4;3;
67892;PMS7003;54688;52.376;16.744;2022-09-17T08:56:15;2;2;
67892;PMS7003;54688;52.376;16.744;2022-09-17T08:59:23;3;3;
67892;PMS7003;54688;52.376;16.744;2022-09-17T09:02:40;1;1;
67892;PMS7003;54688;52.376;16.744;2022-09-17T09:05:46;2;1;
67892;PMS7003;54688;52.376;16.744;2022-09-17T09:08:52;2;2;
67892;PMS7003;54688;52.376;16.744;2022-09-17T09:12:00;1;1;
67892;PMS7003;54688;52.376;16.744;2022-09-17T09:15:12;1;1;
67892;PMS7003;54688;52.376;16.744;2022-09-17T09:18:19;1;1;
67892;PMS7003;54688;52.376;16.744;2022-09-17T09:21:24;3;2;
67892;PMS7003;54688;52.376;16.744;2022-09-17T09:24:35;2;2;
67892;PMS7003;54688;52.376;16.744;2022-09-17T09:27:44;1;1;
67892;PMS7003;54688;52.376;16.744;2022-09-17T09:30:56;2;2;
67892;PMS7003;54688;52.376;16.744;2022-09-17T09:34:02;2;2;
67892;PMS7003;54688;52.376;16.744;2022-09-17T09:37:11;1;1;
67892;PMS7003;54688;52.376;16.744;2022-09-17T09:40:23;5;3;
67892;PMS7003;54688;52.376;16.744;2022-09-17T09:43:33;4;3;
67892;PMS7003;54688;52.376;16.744;2022-09-17T09:46:45;4;2;
67892;PMS7003;54688;52.376;16.744;2022-09-17T09:50:00;3;3;
67892;PMS7003;54688;52.376;16.744;2022-09-17T09:53:17;5;4;
67892;PMS7003;54688;52.376;16.744;2022-09-17T09:56:31;5;3;
67892;PMS7003;54688;52.376;16.744;2022-09-17T09:59:35;5;5;
67892;PMS7003;54688;52.376;16.744;2022-09-17T10:02:37;5;5;
67892;PMS7003;54688;52.376;16.744;2022-09-17T10:05:39;5;4;
67892;PMS7003;54688;52.376;16.744;2022-09-17T10:09:08;2;2;
67892;PMS7003;54688;52.376;16.744;2022-09-17T10:12:15;1;1;
67892;PMS7003;54688;52.376;16.744;2022-09-17T10:15:23;2;2;
67892;PMS7003;54688;52.376;16.744;2022-09-17T10:18:26;4;1;
67892;PMS7003;54688;52.376;16.744;2022-09-17T10:21:30;2;1;
67892;PMS7003;54688;52.376;16.744;2022-09-17T10:24:35;3;1;
67892;PMS7003;54688;52.376;16.744;2022-09-17T10:27:41;1;1;
67892;PMS7003;54688;52.376;16.744;2022-09-17T10:30:54;0;0;
67892;PMS7003;54688;52.376;16.744;2022-09-17T10:33:59;1;1;
67892;PMS7003;54688;52.376;16.744;2022-09-17T10:37:01;0;0;
67892;PMS7003;54688;52.376;16.744;2022-09-17T10:40:24;0;0;
67892;PMS7003;54688;52.376;16.744;2022-09-17T10:43:27;0;0;
67892;PMS7003;54688;52.376;16.744;2022-09-17T10:46:29;1;1;
67892;PMS7003;54688;52.376;16.744;2022-09-17T10:49:37;1;0;
67892;PMS7003;54688;52.376;16.744;2022-09-17T10:52:45;0;0;
67892;PMS7003;54688;52.376;16.744;2022-09-17T10:55:50;0;0;
67892;PMS7003;54688;52.376;16.744;2022-09-17T10:59:00;3;0;
67892;PMS7003;54688;52.376;16.744;2022-09-17T11:04:28;1;1;
67892;PMS7003;54688;52.376;16.744;2022-09-17T11:07:33;3;1;
67892;PMS7003;54688;52.376;16.744;2022-09-17T11:10:44;0;0;
67892;PMS7003;54688;52.376;16.744;2022-09-17T11:13:56;1;1;
67892;PMS7003;54688;52.376;16.744;2022-09-17T11:17:08;0;0;
67892;PMS7003;54688;52.376;16.744;2022-09-17T11:20:21;2;2;
67892;PMS7003;54688;52.376;16.744;2022-09-17T11:23:41;1;1;
67892;PMS7003;54688;52.376;16.744;2022-09-17T11:26:54;1;1;
67892;PMS7003;54688;52.376;16.744;2022-09-17T11:30:07;2;2;
67892;PMS7003;54688;52.376;16.744;2022-09-17T11:33:21;1;1;
67892;PMS7003;54688;52.376;16.744;2022-09-17T11:36:29;2;2;
67892;PMS7003;54688;52.376;16.744;2022-09-17T11:39:40;4;1;
67892;PMS7003;54688;52.376;16.744;2022-09-17T11:42:47;2;2;
67892;PMS7003;54688;52.376;16.744;2022-09-17T11:45:58;1;1;
67892;PMS7003;54688;52.376;16.744;2022-09-17T11:49:03;3;2;
67892;PMS7003;54688;52.376;16.744;2022-09-17T11:52:08;0;0;
67892;PMS7003;54688;52.376;16.744;2022-09-17T11:55:18;3;2;
67892;PMS7003;54688;52.376;16.744;2022-09-17T11:58:26;3;2;
67892;PMS7003;54688;52.376;16.744;2022-09-17T12:01:35;1;1;
67892;PMS7003;54688;52.376;16.744;2022-09-17T12:04:43;2;0;
67892;PMS7003;54688;52.376;16.744;2022-09-17T12:07:52;0;0;
67892;PMS7003;54688;52.376;16.744;2022-09-17T12:11:00;1;1;
67892;PMS7003;54688;52.376;16.744;2022-09-17T12:14:10;0;0;
67892;PMS7003;54688;52.376;16.744;2022-09-17T12:17:19;1;1;
67892;PMS7003;54688;52.376;16.744;2022-09-17T12:20:26;0;0;
67892;PMS7003;54688;52.376;16.744;2022-09-17T12:23:35;1;1;
67892;PMS7003;54688;52.376;16.744;2022-09-17T12:26:50;2;1;
67892;PMS7003;54688;52.376;16.744;2022-09-17T12:30:04;2;0;
67892;PMS7003;54688;52.376;16.744;2022-09-17T12:33:17;0;0;
67892;PMS7003;54688;52.376;16.744;2022-09-17T12:36:32;2;2;
67892;PMS7003;54688;52.376;16.744;2022-09-17T12:39:51;1;1;
67892;PMS7003;54688;52.376;16.744;2022-09-17T12:43:08;2;1;
67892;PMS7003;54688;52.376;16.744;2022-09-17T12:46:25;0;0;
67892;PMS7003;54688;52.376;16.744;2022-09-17T12:49:38;1;0;
67892;PMS7003;54688;52.376;16.744;2022-09-17T12:52:55;2;1;
67892;PMS7003;54688;52.376;16.744;2022-09-17T12:56:05;0;0;
67892;PMS7003;54688;52.376;16.744;2022-09-17T12:59:12;1;0;
67892;PMS7003;54688;52.376;16.744;2022-09-17T13:02:21;1;1;
67892;PMS7003;54688;52.376;16.744;2022-09-17T13:06:08;1;0;
67892;PMS7003;54688;52.376;16.744;2022-09-17T13:10:05;2;1;
67892;PMS7003;54688;52.376;16.744;2022-09-17T13:13:23;0;0;
67892;PMS7003;54688;52.376;16.744;2022-09-17T13:16:34;0;0;
67892;PMS7003;54688;52.376;16.744;2022-09-17T13:19:46;0;0;
67892;PMS7003;54688;52.376;16.744;2022-09-17T13:22:50;0;0;
67892;PMS7003;54688;52.376;16.744;2022-09-17T13:25:53;2;0;
67892;PMS7003;54688;52.376;16.744;2022-09-17T13:28:55;0;0;
67892;PMS7003;54688;52.376;16.744;2022-09-17T13:31:59;1;0;
67892;PMS7003;54688;52.376;16.744;2022-09-17T13:35:46;0;0;
67892;PMS7003;54688;52.376;16.744;2022-09-17T13:38:48;0;0;
67892;PMS7003;54688;52.376;16.744;2022-09-17T13:41:59;0;0;
67892;PMS7003;54688;52.376;16.744;2022-09-17T13:45:06;2;0;
67892;PMS7003;54688;52.376;16.744;2022-09-17T13:48:10;1;1;
67892;PMS7003;54688;52.376;16.744;2022-09-17T13:52:12;2;0;
67892;PMS7003;54688;52.376;16.744;2022-09-17T13:55:33;1;1;
67892;PMS7003;54688;52.376;16.744;2022-09-17T13:58:36;2;1;
67892;PMS7003;54688;52.376;16.744;2022-09-17T14:01:59;1;0;
67892;PMS7003;54688;52.376;16.744;2022-09-17T14:05:27;1;0;
67892;PMS7003;54688;52.376;16.744;2022-09-17T14:08:30;1;1;
67892;PMS7003;54688;52.376;16.744;2022-09-17T14:11:47;0;0;
67892;PMS7003;54688;52.376;16.744;2022-09-17T14:14:50;1;1;
67892;PMS7003;54688;52.376;16.744;2022-09-17T14:17:52;0;0;
67892;PMS7003;54688;52.376;16.744;2022-09-17T14:21:04;0;0;
67892;PMS7003;54688;52.376;16.744;2022-09-17T14:24:19;0;0;
67892;PMS7003;54688;52.376;16.744;2022-09-17T14:27:41;1;0;
67892;PMS7003;54688;52.376;16.744;2022-09-17T14:30:45;0;0;
67892;PMS7003;54688;52.376;16.744;2022-09-17T14:33:49;1;0;
67892;PMS7003;54688;52.376;16.744;2022-09-17T14:36:51;0;0;
67892;PMS7003;54688;52.376;16.744;2022-09-17T14:39:54;0;0;
67892;PMS7003;54688;52.376;16.744;2022-09-17T14:42:57;1;0;
67892;PMS7003;54688;52.376;16.744;2022-09-17T14:46:02;0;0;
67892;PMS7003;54688;52.376;16.744;2022-09-17T14:49:12;0;0;
67892;PMS7003;54688;52.376;16.744;2022-09-17T14:52:24;0;0;
67892;PMS7003;54688;52.376;16.744;2022-09-17T14:55:29;0;0;
67892;PMS7003;54688;52.376;16.744;2022-09-17T14:58:35;2;1;
67892;PMS7003;54688;52.376;16.744;2022-09-17T15:01:38;3;0;
67892;PMS7003;54688;52.376;16.744;2022-09-17T15:04:41;2;1;
67892;PMS7003;54688;52.376;16.744;2022-09-17T15:07:43;1;1;
67892;PMS7003;54688;52.376;16.744;2022-09-17T15:10:48;1;1;
67892;PMS7003;54688;52.376;16.744;2022-09-17T15:13:51;0;0;
67892;PMS7003;54688;52.376;16.744;2022-09-17T15:16:55;1;1;
67892;PMS7003;54688;52.376;16.744;2022-09-17T15:20:02;2;1;
67892;PMS7003;54688;52.376;16.744;2022-09-17T15:23:07;1;1;
67892;PMS7003;54688;52.376;16.744;2022-09-17T15:26:20;1;1;
67892;PMS7003;54688;52.376;16.744;2022-09-17T15:29:25;3;1;
67892;PMS7003;54688;52.376;16.744;2022-09-17T15:32:30;1;1;
67892;PMS7003;54688;52.376;16.744;2022-09-17T15:35:34;1;1;
67892;PMS7003;54688;52.376;16.744;2022-09-17T15:38:36;3;1;
67892;PMS7003;54688;52.376;16.744;2022-09-17T15:41:39;1;1;
67892;PMS7003;54688;52.376;16.744;2022-09-17T15:44:41;1;1;
67892;PMS7003;54688;52.376;16.744;2022-09-17T15:47:50;4;3;
67892;PMS7003;54688;52.376;16.744;2022-09-17T15:50:54;3;2;
67892;PMS7003;54688;52.376;16.744;2022-09-17T15:53:58;2;1;
67892;PMS7003;54688;52.376;16.744;2022-09-17T15:57:00;2;1;
67892;PMS7003;54688;52.376;16.744;2022-09-17T16:00:06;3;2;
67892;PMS7003;54688;52.376;16.744;2022-09-17T16:05:44;1;1;
67892;PMS7003;54688;52.376;16.744;2022-09-17T16:08:48;3;3;
67892;PMS7003;54688;52.376;16.744;2022-09-17T16:11:50;2;2;
67892;PMS7003;54688;52.376;16.744;2022-09-17T16:14:54;6;3;
67892;PMS7003;54688;52.376;16.744;2022-09-17T16:17:57;5;2;
67892;PMS7003;54688;52.376;16.744;2022-09-17T16:20:58;5;2;
67892;PMS7003;54688;52.376;16.744;2022-09-17T16:24:00;1;1;
67892;PMS7003;54688;52.376;16.744;2022-09-17T16:27:03;4;1;
67892;PMS7003;54688;52.376;16.744;2022-09-17T16:30:12;1;1;
67892;PMS7003;54688;52.376;16.744;2022-09-17T16:33:16;1;1;
67892;PMS7003;54688;52.376;16.744;2022-09-17T16:36:20;4;1;
67892;PMS7003;54688;52.376;16.744;2022-09-17T16:39:22;3;2;
67892;PMS7003;54688;52.376;16.744;2022-09-17T16:42:24;3;1;
67892;PMS7003;54688;52.376;16.744;2022-09-17T16:45:26;4;1;
67892;PMS7003;54688;52.376;16.744;2022-09-17T16:48:28;2;2;
67892;PMS7003;54688;52.376;16.744;2022-09-17T16:51:30;0;0;
67892;PMS7003;54688;52.376;16.744;2022-09-17T16:54:32;3;1;
67892;PMS7003;54688;52.376;16.744;2022-09-17T16:57:34;0;0;
67892;PMS7003;54688;52.376;16.744;2022-09-17T17:00:36;2;2;
67892;PMS7003;54688;52.376;16.744;2022-09-17T17:03:39;1;0;
67892;PMS7003;54688;52.376;16.744;2022-09-17T17:06:41;1;0;
67892;PMS7003;54688;52.376;16.744;2022-09-17T17:09:44;1;0;
67892;PMS7003;54688;52.376;16.744;2022-09-17T17:12:45;2;0;
67892;PMS7003;54688;52.376;16.744;2022-09-17T17:15:48;2;0;
67892;PMS7003;54688;52.376;16.744;2022-09-17T17:18:50;4;0;
67892;PMS7003;54688;52.376;16.744;2022-09-17T17:21:52;0;0;
67892;PMS7003;54688;52.376;16.744;2022-09-17T17:24:54;0;0;
67892;PMS7003;54688;52.376;16.744;2022-09-17T17:27:56;0;0;
67892;PMS7003;54688;52.376;16.744;2022-09-17T17:30:58;3;1;
67892;PMS7003;54688;52.376;16.744;2022-09-17T17:34:00;4;1;
67892;PMS7003;54688;52.376;16.744;2022-09-17T17:37:03;1;1;
67892;PMS7003;54688;52.376;16.744;2022-09-17T17:40:06;3;1;
67892;PMS7003;54688;52.376;16.744;2022-09-17T17:43:08;1;1;
67892;PMS7003;54688;52.376;16.744;2022-09-17T17:46:11;3;1;
67892;PMS7003;54688;52.376;16.744;2022-09-17T17:49:12;2;1;
67892;PMS7003;54688;52.376;16.744;2022-09-17T17:52:15;5;3;
67892;PMS7003;54688;52.376;16.744;2022-09-17T17:55:17;4;2;
67892;PMS7003;54688;52.376;16.744;2022-09-17T18:01:18;2;1;
67892;PMS7003;54688;52.376;16.744;2022-09-17T18:04:21;2;1;
67892;PMS7003;54688;52.376;16.744;2022-09-17T18:07:23;2;2;
67892;PMS7003;54688;52.376;16.744;2022-09-17T18:10:25;1;1;
67892;PMS7003;54688;52.376;16.744;2022-09-17T18:13:26;0;0;
67892;PMS7003;54688;52.376;16.744;2022-09-17T18:16:28;4;0;
67892;PMS7003;54688;52.376;16.744;2022-09-17T18:19:30;1;1;
67892;PMS7003;54688;52.376;16.744;2022-09-17T18:22:31;6;3;
67892;PMS7003;54688;52.376;16.744;2022-09-17T18:25:33;2;1;
67892;PMS7003;54688;52.376;16.744;2022-09-17T18:28:35;5;4;
67892;PMS7003;54688;52.376;16.744;2022-09-17T18:31:38;3;2;
67892;PMS7003;54688;52.376;16.744;2022-09-17T18:34:40;4;4;
67892;PMS7003;54688;52.376;16.744;2022-09-17T18:37:42;6;4;
67892;PMS7003;54688;52.376;16.744;2022-09-17T18:40:44;4;4;
67892;PMS7003;54688;52.376;16.744;2022-09-17T18:43:46;8;6;
67892;PMS7003;54688;52.376;16.744;2022-09-17T18:46:49;9;8;
67892;PMS7003;54688;52.376;16.744;2022-09-17T18:49:50;7;6;
67892;PMS7003;54688;52.376;16.744;2022-09-17T18:52:53;6;5;
67892;PMS7003;54688;52.376;16.744;2022-09-17T18:55:57;11;6;
67892;PMS7003;54688;52.376;16.744;2022-09-17T18:59:00;8;5;
67892;PMS7003;54688;52.376;16.744;2022-09-17T19:02:04;7;6;
67892;PMS7003;54688;52.376;16.744;2022-09-17T19:05:07;7;6;
67892;PMS7003;54688;52.376;16.744;2022-09-17T19:08:09;6;5;
67892;PMS7003;54688;52.376;16.744;2022-09-17T19:11:12;5;4;
67892;PMS7003;54688;52.376;16.744;2022-09-17T19:14:14;4;3;
67892;PMS7003;54688;52.376;16.744;2022-09-17T19:17:16;5;2;
67892;PMS7003;54688;52.376;16.744;2022-09-17T19:20:17;5;3;
67892;PMS7003;54688;52.376;16.744;2022-09-17T19:23:19;6;5;
67892;PMS7003;54688;52.376;16.744;2022-09-17T19:26:23;7;5;
67892;PMS7003;54688;52.376;16.744;2022-09-17T19:29:26;7;7;
67892;PMS7003;54688;52.376;16.744;2022-09-17T19:32:27;10;5;
67892;PMS7003;54688;52.376;16.744;2022-09-17T19:35:29;10;6;
67892;PMS7003;54688;52.376;16.744;2022-09-17T19:38:33;12;6;
67892;PMS7003;54688;52.376;16.744;2022-09-17T19:41:35;8;7;
67892;PMS7003;54688;52.376;16.744;2022-09-17T19:44:37;14;7;
67892;PMS7003;54688;52.376;16.744;2022-09-17T19:47:39;9;6;
67892;PMS7003;54688;52.376;16.744;2022-09-17T19:50:49;8;7;
67892;PMS7003;54688;52.376;16.744;2022-09-17T19:53:51;10;8;
67892;PMS7003;54688;52.376;16.744;2022-09-17T19:56:53;7;7;
67892;PMS7003;54688;52.376;16.744;2022-09-17T19:59:55;10;8;
67892;PMS7003;54688;52.376;16.744;2022-09-17T20:05:57;9;7;
67892;PMS7003;54688;52.376;16.744;2022-09-17T20:09:00;10;6;
67892;PMS7003;54688;52.376;16.744;2022-09-17T20:12:03;6;6;
67892;PMS7003;54688;52.376;16.744;2022-09-17T20:15:05;7;7;
67892;PMS7003;54688;52.376;16.744;2022-09-17T20:18:07;10;7;
67892;PMS7003;54688;52.376;16.744;2022-09-17T20:21:11;10;5;
67892;PMS7003;54688;52.376;16.744;2022-09-17T20:24:13;5;5;
67892;PMS7003;54688;52.376;16.744;2022-09-17T20:27:15;8;8;
67892;PMS7003;54688;52.376;16.744;2022-09-17T20:30:17;5;4;
67892;PMS7003;54688;52.376;16.744;2022-09-17T20:33:19;7;6;
67892;PMS7003;54688;52.376;16.744;2022-09-17T20:36:23;8;5;
67892;PMS7003;54688;52.376;16.744;2022-09-17T20:39:26;7;7;
67892;PMS7003;54688;52.376;16.744;2022-09-17T20:42:28;13;6;
67892;PMS7003;54688;52.376;16.744;2022-09-17T20:45:30;7;5;
67892;PMS7003;54688;52.376;16.744;2022-09-17T20:48:33;5;5;
67892;PMS7003;54688;52.376;16.744;2022-09-17T20:51:35;6;6;
67892;PMS7003;54688;52.376;16.744;2022-09-17T20:54:37;10;6;
67892;PMS7003;54688;52.376;16.744;2022-09-17T20:57:39;5;5;
67892;PMS7003;54688;52.376;16.744;2022-09-17T21:00:40;6;6;
67892;PMS7003;54688;52.376;16.744;2022-09-17T21:03:44;8;5;